sensor_id;sensor_type;location;lat;lon;timestamp;temperature;humidity
22108;DHT22;11220;48.812;9.128;2023-04-24T00:01:39;19.20;77.20
22108;DHT22;11220;48.812;9.128;2023-04-24T00:04:05;19.10;77.00
22108;DHT22;11220;48.812;9.128;2023-04-24T00:06:32;19.10;77.00
22108;DHT22;11220;48.812;9.128;2023-04-24T00:09:03;20.10;77.70
22108;DHT22;11220;48.812;9.128;2023-04-24T00:11:29;19.00;77.00
22108;DHT22;11220;48.812;9.128;2023-04-24T00:13:55;19.00;76.90
22108;DHT22;11220;48.812;9.128;2023-04-24T00:16:21;19.00;76.90
22108;DHT22;11220;48.812;9.128;2023-04-24T00:18:47;19.00;76.90
22108;DHT22;11220;48.812;9.128;2023-04-24T00:21:13;19.00;76.90
22108;DHT22;11220;48.812;9.128;2023-04-24T00:23:39;19.00;76.90
22108;DHT22;11220;48.812;9.128;2023-04-24T00:26:04;19.50;77.20
22108;DHT22;11220;48.812;9.128;2023-04-24T00:28:30;19.20;77.00
22108;DHT22;11220;48.812;9.128;2023-04-24T00:30:55;19.70;77.30
22108;DHT22;11220;48.812;9.128;2023-04-24T00:33:21;19.00;76.80
22108;DHT22;11220;48.812;9.128;2023-04-24T00:35:46;19.50;77.10
22108;DHT22;11220;48.812;9.128;2023-04-24T00:38:12;20.10;77.50
22108;DHT22;11220;48.812;9.128;2023-04-24T00:40:38;19.30;76.90
22108;DHT22;11220;48.812;9.128;2023-04-24T00:43:03;19.40;77.00
22108;DHT22;11220;48.812;9.128;2023-04-24T00:45:29;19.00;76.70
22108;DHT22;11220;48.812;9.128;2023-04-24T00:47:57;19.00;76.70
22108;DHT22;11220;48.812;9.128;2023-04-24T00:50:23;19.00;76.70
22108;DHT22;11220;48.812;9.128;2023-04-24T00:52:49;19.60;77.10
22108;DHT22;11220;48.812;9.128;2023-04-24T00:55:15;19.40;76.90
22108;DHT22;11220;48.812;9.128;2023-04-24T00:57:41;19.50;76.90
22108;DHT22;11220;48.812;9.128;2023-04-24T01:00:07;19.60;76.90
22108;DHT22;11220;48.812;9.128;2023-04-24T01:02:36;19.00;76.60
22108;DHT22;11220;48.812;9.128;2023-04-24T01:05:06;19.00;76.60
22108;DHT22;11220;48.812;9.128;2023-04-24T01:07:32;18.90;76.50
22108;DHT22;11220;48.812;9.128;2023-04-24T01:09:58;18.90;76.50
22108;DHT22;11220;48.812;9.128;2023-04-24T01:12:24;18.90;76.50
22108;DHT22;11220;48.812;9.128;2023-04-24T01:14:50;18.90;76.50
22108;DHT22;11220;48.812;9.128;2023-04-24T01:17:16;19.50;76.80
22108;DHT22;11220;48.812;9.128;2023-04-24T01:19:42;18.90;76.50
22108;DHT22;11220;48.812;9.128;2023-04-24T01:22:14;19.60;76.90
22108;DHT22;11220;48.812;9.128;2023-04-24T01:24:41;18.90;76.50
22108;DHT22;11220;48.812;9.128;2023-04-24T01:27:07;19.70;77.00
22108;DHT22;11220;48.812;9.128;2023-04-24T01:29:34;18.90;76.50
22108;DHT22;11220;48.812;9.128;2023-04-24T01:32:00;18.90;76.50
22108;DHT22;11220;48.812;9.128;2023-04-24T01:34:26;19.90;77.00
22108;DHT22;11220;48.812;9.128;2023-04-24T01:36:51;18.90;76.40
22108;DHT22;11220;48.812;9.128;2023-04-24T01:39:17;18.90;76.40
22108;DHT22;11220;48.812;9.128;2023-04-24T01:41:43;18.90;76.40
22108;DHT22;11220;48.812;9.128;2023-04-24T01:44:08;19.40;76.70
22108;DHT22;11220;48.812;9.128;2023-04-24T01:46:34;18.90;76.40
22108;DHT22;11220;48.812;9.128;2023-04-24T01:49:01;18.90;76.40
22108;DHT22;11220;48.812;9.128;2023-04-24T01:51:27;18.90;76.40
22108;DHT22;11220;48.812;9.128;2023-04-24T01:53:52;19.50;76.70
22108;DHT22;11220;48.812;9.128;2023-04-24T01:56:20;18.90;76.40
22108;DHT22;11220;48.812;9.128;2023-04-24T01:58:47;18.90;76.40
22108;DHT22;11220;48.812;9.128;2023-04-24T02:01:23;18.90;76.40
22108;DHT22;11220;48.812;9.128;2023-04-24T02:03:49;18.90;76.40
22108;DHT22;11220;48.812;9.128;2023-04-24T02:06:15;19.50;76.70
22108;DHT22;11220;48.812;9.128;2023-04-24T02:08:40;18.90;76.50
22108;DHT22;11220;48.812;9.128;2023-04-24T02:11:06;19.60;76.80
22108;DHT22;11220;48.812;9.128;2023-04-24T02:13:31;18.90;76.50
22108;DHT22;11220;48.812;9.128;2023-04-24T02:15:58;19.50;76.70
22108;DHT22;11220;48.812;9.128;2023-04-24T02:18:24;18.90;76.40
22108;DHT22;11220;48.812;9.128;2023-04-24T02:20:49;18.90;76.40
22108;DHT22;11220;48.812;9.128;2023-04-24T02:23:15;19.20;76.60
22108;DHT22;11220;48.812;9.128;2023-04-24T02:25:41;18.90;76.40
22108;DHT22;11220;48.812;9.128;2023-04-24T02:28:06;18.90;76.40
22108;DHT22;11220;48.812;9.128;2023-04-24T02:30:32;18.80;76.40
22108;DHT22;11220;48.812;9.128;2023-04-24T02:32:57;18.90;76.40
22108;DHT22;11220;48.812;9.128;2023-04-24T02:35:23;19.80;77.00
22108;DHT22;11220;48.812;9.128;2023-04-24T02:37:48;18.90;76.40
22108;DHT22;11220;48.812;9.128;2023-04-24T02:40:14;18.80;76.30
22108;DHT22;11220;48.812;9.128;2023-04-24T02:42:40;18.80;76.30
22108;DHT22;11220;48.812;9.128;2023-04-24T02:45:06;18.80;76.40
22108;DHT22;11220;48.812;9.128;2023-04-24T02:47:32;18.90;76.40
22108;DHT22;11220;48.812;9.128;2023-04-24T02:49:57;18.80;76.40
22108;DHT22;11220;48.812;9.128;2023-04-24T02:52:23;19.30;76.70
22108;DHT22;11220;48.812;9.128;2023-04-24T02:54:48;18.80;76.40
22108;DHT22;11220;48.812;9.128;2023-04-24T02:57:14;19.80;76.90
22108;DHT22;11220;48.812;9.128;2023-04-24T02:59:40;19.70;76.90
22108;DHT22;11220;48.812;9.128;2023-04-24T03:02:05;19.20;76.60
22108;DHT22;11220;48.812;9.128;2023-04-24T03:04:31;18.80;76.40
22108;DHT22;11220;48.812;9.128;2023-04-24T03:06:57;18.80;76.40
22108;DHT22;11220;48.812;9.128;2023-04-24T03:09:23;18.80;76.40
22108;DHT22;11220;48.812;9.128;2023-04-24T03:11:48;18.80;76.40
22108;DHT22;11220;48.812;9.128;2023-04-24T03:14:14;18.90;76.50
22108;DHT22;11220;48.812;9.128;2023-04-24T03:16:40;19.20;76.70
22108;DHT22;11220;48.812;9.128;2023-04-24T03:19:06;19.10;76.60
22108;DHT22;11220;48.812;9.128;2023-04-24T03:21:31;19.20;76.70
22108;DHT22;11220;48.812;9.128;2023-04-24T03:23:57;18.80;76.50
22108;DHT22;11220;48.812;9.128;2023-04-24T03:26:22;19.70;77.00
22108;DHT22;11220;48.812;9.128;2023-04-24T03:28:48;18.70;76.30
22108;DHT22;11220;48.812;9.128;2023-04-24T03:31:13;18.80;76.50
22108;DHT22;11220;48.812;9.128;2023-04-24T03:33:40;19.10;76.60
22108;DHT22;11220;48.812;9.128;2023-04-24T03:36:06;18.70;76.30
22108;DHT22;11220;48.812;9.128;2023-04-24T03:38:32;18.80;76.50
22108;DHT22;11220;48.812;9.128;2023-04-24T03:40:57;18.80;76.50
22108;DHT22;11220;48.812;9.128;2023-04-24T03:43:23;18.80;76.50
22108;DHT22;11220;48.812;9.128;2023-04-24T03:45:48;18.80;76.50
22108;DHT22;11220;48.812;9.128;2023-04-24T03:48:14;19.10;76.60
22108;DHT22;11220;48.812;9.128;2023-04-24T03:50:40;18.70;76.40
22108;DHT22;11220;48.812;9.128;2023-04-24T03:53:05;18.70;76.40
22108;DHT22;11220;48.812;9.128;2023-04-24T03:55:31;18.70;76.40
22108;DHT22;11220;48.812;9.128;2023-04-24T03:57:56;19.30;76.80
22108;DHT22;11220;48.812;9.128;2023-04-24T04:00:22;19.10;76.70
22108;DHT22;11220;48.812;9.128;2023-04-24T04:02:48;18.70;76.40
22108;DHT22;11220;48.812;9.128;2023-04-24T04:05:13;18.70;76.40
22108;DHT22;11220;48.812;9.128;2023-04-24T04:07:39;18.70;76.40
22108;DHT22;11220;48.812;9.128;2023-04-24T04:10:05;18.70;76.40
22108;DHT22;11220;48.812;9.128;2023-04-24T04:12:32;18.70;76.50
22108;DHT22;11220;48.812;9.128;2023-04-24T04:14:57;18.80;76.50
22108;DHT22;11220;48.812;9.128;2023-04-24T04:17:23;19.60;77.10
22108;DHT22;11220;48.812;9.128;2023-04-24T04:19:48;18.70;76.60
22108;DHT22;11220;48.812;9.128;2023-04-24T04:22:14;19.70;77.20
22108;DHT22;11220;48.812;9.128;2023-04-24T04:24:39;19.80;77.20
22108;DHT22;11220;48.812;9.128;2023-04-24T04:27:06;19.30;76.90
22108;DHT22;11220;48.812;9.128;2023-04-24T04:29:32;19.70;77.20
22108;DHT22;11220;48.812;9.128;2023-04-24T04:31:58;20.60;77.80
22108;DHT22;11220;48.812;9.128;2023-04-24T04:34:24;18.70;76.60
22108;DHT22;11220;48.812;9.128;2023-04-24T04:36:49;19.10;76.90
22108;DHT22;11220;48.812;9.128;2023-04-24T04:39:16;19.00;76.70
22108;DHT22;11220;48.812;9.128;2023-04-24T04:41:42;19.30;76.90
22108;DHT22;11220;48.812;9.128;2023-04-24T04:44:07;18.70;76.50
22108;DHT22;11220;48.812;9.128;2023-04-24T04:46:34;18.70;76.50
22108;DHT22;11220;48.812;9.128;2023-04-24T04:49:01;18.70;76.50
22108;DHT22;11220;48.812;9.128;2023-04-24T04:51:27;19.20;76.70
22108;DHT22;11220;48.812;9.128;2023-04-24T04:53:53;18.70;76.50
22108;DHT22;11220;48.812;9.128;2023-04-24T04:56:18;18.70;76.40
22108;DHT22;11220;48.812;9.128;2023-04-24T04:58:44;18.70;76.50
22108;DHT22;11220;48.812;9.128;2023-04-24T05:01:10;18.70;76.50
22108;DHT22;11220;48.812;9.128;2023-04-24T05:03:35;18.70;76.50
22108;DHT22;11220;48.812;9.128;2023-04-24T05:06:01;19.50;77.10
22108;DHT22;11220;48.812;9.128;2023-04-24T05:08:27;18.70;76.60
22108;DHT22;11220;48.812;9.128;2023-04-24T05:10:53;18.70;76.60
22108;DHT22;11220;48.812;9.128;2023-04-24T05:13:19;18.70;76.60
22108;DHT22;11220;48.812;9.128;2023-04-24T05:15:45;18.70;76.60
22108;DHT22;11220;48.812;9.128;2023-04-24T05:18:10;18.70;76.60
22108;DHT22;11220;48.812;9.128;2023-04-24T05:20:36;18.70;76.60
22108;DHT22;11220;48.812;9.128;2023-04-24T05:23:02;18.80;76.60
22108;DHT22;11220;48.812;9.128;2023-04-24T05:25:27;18.70;76.50
22108;DHT22;11220;48.812;9.128;2023-04-24T05:27:53;18.70;76.50
22108;DHT22;11220;48.812;9.128;2023-04-24T05:30:19;18.70;76.60
22108;DHT22;11220;48.812;9.128;2023-04-24T05:32:45;18.70;76.60
22108;DHT22;11220;48.812;9.128;2023-04-24T05:35:11;18.70;76.50
22108;DHT22;11220;48.812;9.128;2023-04-24T05:37:37;18.70;76.40
22108;DHT22;11220;48.812;9.128;2023-04-24T05:40:03;18.80;76.50
22108;DHT22;11220;48.812;9.128;2023-04-24T05:42:31;18.70;76.30
22108;DHT22;11220;48.812;9.128;2023-04-24T05:44:56;18.70;76.40
22108;DHT22;11220;48.812;9.128;2023-04-24T05:47:22;18.70;77.40
22108;DHT22;11220;48.812;9.128;2023-04-24T05:49:48;18.70;76.40
22108;DHT22;11220;48.812;9.128;2023-04-24T05:52:13;18.90;76.50
22108;DHT22;11220;48.812;9.128;2023-04-24T05:54:39;19.60;77.00
22108;DHT22;11220;48.812;9.128;2023-04-24T05:57:04;18.70;76.40
22108;DHT22;11220;48.812;9.128;2023-04-24T05:59:34;18.70;76.40
22108;DHT22;11220;48.812;9.128;2023-04-24T06:01:59;18.70;76.50
22108;DHT22;11220;48.812;9.128;2023-04-24T06:04:25;18.70;76.40
22108;DHT22;11220;48.812;9.128;2023-04-24T06:06:51;18.70;76.40
22108;DHT22;11220;48.812;9.128;2023-04-24T06:09:24;18.80;76.50
22108;DHT22;11220;48.812;9.128;2023-04-24T06:11:50;18.70;76.50
22108;DHT22;11220;48.812;9.128;2023-04-24T06:14:18;18.70;76.50
22108;DHT22;11220;48.812;9.128;2023-04-24T06:16:44;18.70;76.50
22108;DHT22;11220;48.812;9.128;2023-04-24T06:19:09;18.70;76.50
22108;DHT22;11220;48.812;9.128;2023-04-24T06:21:35;18.70;76.50
22108;DHT22;11220;48.812;9.128;2023-04-24T06:24:01;18.70;76.50
22108;DHT22;11220;48.812;9.128;2023-04-24T06:26:27;18.80;76.50
22108;DHT22;11220;48.812;9.128;2023-04-24T06:28:53;18.70;76.50
22108;DHT22;11220;48.812;9.128;2023-04-24T06:31:19;18.70;76.50
22108;DHT22;11220;48.812;9.128;2023-04-24T06:33:45;18.70;76.40
22108;DHT22;11220;48.812;9.128;2023-04-24T06:36:12;18.70;76.40
22108;DHT22;11220;48.812;9.128;2023-04-24T06:38:37;18.70;76.40
22108;DHT22;11220;48.812;9.128;2023-04-24T06:41:03;18.70;76.50
22108;DHT22;11220;48.812;9.128;2023-04-24T06:43:30;18.70;76.50
22108;DHT22;11220;48.812;9.128;2023-04-24T06:45:57;18.70;76.50
22108;DHT22;11220;48.812;9.128;2023-04-24T06:48:24;18.70;76.40
22108;DHT22;11220;48.812;9.128;2023-04-24T06:50:49;18.70;76.50
22108;DHT22;11220;48.812;9.128;2023-04-24T06:53:15;18.70;76.50
22108;DHT22;11220;48.812;9.128;2023-04-24T06:55:41;18.80;76.50
22108;DHT22;11220;48.812;9.128;2023-04-24T06:58:06;18.80;76.50
22108;DHT22;11220;48.812;9.128;2023-04-24T07:00:32;18.80;76.50
22108;DHT22;11220;48.812;9.128;2023-04-24T07:02:57;18.80;76.50
22108;DHT22;11220;48.812;9.128;2023-04-24T07:05:23;18.80;76.60
22108;DHT22;11220;48.812;9.128;2023-04-24T07:07:49;18.80;76.50
22108;DHT22;11220;48.812;9.128;2023-04-24T07:10:15;18.80;76.50
22108;DHT22;11220;48.812;9.128;2023-04-24T07:12:41;18.80;76.50
22108;DHT22;11220;48.812;9.128;2023-04-24T07:15:07;18.80;76.50
22108;DHT22;11220;48.812;9.128;2023-04-24T07:17:34;18.80;76.60
22108;DHT22;11220;48.812;9.128;2023-04-24T07:20:00;18.80;76.70
22108;DHT22;11220;48.812;9.128;2023-04-24T07:22:26;18.80;76.70
22108;DHT22;11220;48.812;9.128;2023-04-24T07:24:51;18.80;76.70
22108;DHT22;11220;48.812;9.128;2023-04-24T07:27:17;18.80;76.70
22108;DHT22;11220;48.812;9.128;2023-04-24T07:29:43;18.80;76.80
22108;DHT22;11220;48.812;9.128;2023-04-24T07:32:08;18.80;76.90
22108;DHT22;11220;48.812;9.128;2023-04-24T07:34:34;18.70;76.70
22108;DHT22;11220;48.812;9.128;2023-04-24T07:37:00;18.80;76.90
22108;DHT22;11220;48.812;9.128;2023-04-24T07:39:26;18.80;76.90
22108;DHT22;11220;48.812;9.128;2023-04-24T07:41:51;18.80;76.90
22108;DHT22;11220;48.812;9.128;2023-04-24T07:44:17;18.80;76.90
22108;DHT22;11220;48.812;9.128;2023-04-24T07:46:43;18.80;76.90
22108;DHT22;11220;48.812;9.128;2023-04-24T07:49:08;18.80;76.90
22108;DHT22;11220;48.812;9.128;2023-04-24T07:51:34;18.80;76.90
22108;DHT22;11220;48.812;9.128;2023-04-24T07:54:04;18.80;76.90
22108;DHT22;11220;48.812;9.128;2023-04-24T07:56:30;18.80;76.90
22108;DHT22;11220;48.812;9.128;2023-04-24T07:58:56;18.80;76.90
22108;DHT22;11220;48.812;9.128;2023-04-24T08:01:22;18.80;76.90
22108;DHT22;11220;48.812;9.128;2023-04-24T08:03:47;18.90;77.00
22108;DHT22;11220;48.812;9.128;2023-04-24T08:06:13;18.90;77.10
22108;DHT22;11220;48.812;9.128;2023-04-24T08:08:38;18.90;77.10
22108;DHT22;11220;48.812;9.128;2023-04-24T08:11:04;18.90;77.10
22108;DHT22;11220;48.812;9.128;2023-04-24T08:13:29;18.90;77.10
22108;DHT22;11220;48.812;9.128;2023-04-24T08:15:56;18.90;77.10
22108;DHT22;11220;48.812;9.128;2023-04-24T08:18:22;18.90;77.10
22108;DHT22;11220;48.812;9.128;2023-04-24T08:20:47;18.90;77.10
22108;DHT22;11220;48.812;9.128;2023-04-24T08:23:13;18.90;77.10
22108;DHT22;11220;48.812;9.128;2023-04-24T08:25:39;18.90;77.10
22108;DHT22;11220;48.812;9.128;2023-04-24T08:28:06;18.90;77.10
22108;DHT22;11220;48.812;9.128;2023-04-24T08:30:33;18.90;77.10
22108;DHT22;11220;48.812;9.128;2023-04-24T08:32:59;18.90;77.10
22108;DHT22;11220;48.812;9.128;2023-04-24T08:35:25;18.90;77.10
22108;DHT22;11220;48.812;9.128;2023-04-24T08:37:52;18.90;77.00
22108;DHT22;11220;48.812;9.128;2023-04-24T08:40:17;18.90;77.10
22108;DHT22;11220;48.812;9.128;2023-04-24T08:42:44;18.90;77.00
22108;DHT22;11220;48.812;9.128;2023-04-24T08:45:13;18.90;77.00
22108;DHT22;11220;48.812;9.128;2023-04-24T08:47:40;18.90;76.90
22108;DHT22;11220;48.812;9.128;2023-04-24T08:50:06;19.70;77.50
22108;DHT22;11220;48.812;9.128;2023-04-24T08:52:34;18.90;77.00
22108;DHT22;11220;48.812;9.128;2023-04-24T08:55:00;19.90;77.60
22108;DHT22;11220;48.812;9.128;2023-04-24T08:57:27;18.90;77.00
22108;DHT22;11220;48.812;9.128;2023-04-24T08:59:53;19.00;77.00
22108;DHT22;11220;48.812;9.128;2023-04-24T09:02:20;18.90;77.00
22108;DHT22;11220;48.812;9.128;2023-04-24T09:04:47;18.90;76.90
22108;DHT22;11220;48.812;9.128;2023-04-24T09:07:14;19.00;77.00
22108;DHT22;11220;48.812;9.128;2023-04-24T09:09:41;19.00;77.00
22108;DHT22;11220;48.812;9.128;2023-04-24T09:12:06;19.00;76.90
22108;DHT22;11220;48.812;9.128;2023-04-24T09:14:34;18.90;76.90
22108;DHT22;11220;48.812;9.128;2023-04-24T09:17:02;18.90;76.90
22108;DHT22;11220;48.812;9.128;2023-04-24T09:19:27;19.00;77.00
22108;DHT22;11220;48.812;9.128;2023-04-24T09:21:53;19.90;77.50
22108;DHT22;11220;48.812;9.128;2023-04-24T09:24:21;18.90;77.00
22108;DHT22;11220;48.812;9.128;2023-04-24T09:26:56;18.90;77.10
22108;DHT22;11220;48.812;9.128;2023-04-24T09:29:24;19.00;77.10
22108;DHT22;11220;48.812;9.128;2023-04-24T09:31:49;19.00;77.20
22108;DHT22;11220;48.812;9.128;2023-04-24T09:34:24;19.00;77.20
22108;DHT22;11220;48.812;9.128;2023-04-24T09:36:51;19.00;77.20
22108;DHT22;11220;48.812;9.128;2023-04-24T09:39:18;19.00;77.20
22108;DHT22;11220;48.812;9.128;2023-04-24T09:41:55;19.00;77.20
22108;DHT22;11220;48.812;9.128;2023-04-24T09:44:27;19.00;77.20
22108;DHT22;11220;48.812;9.128;2023-04-24T09:46:59;19.00;77.20
22108;DHT22;11220;48.812;9.128;2023-04-24T09:49:26;19.00;77.20
22108;DHT22;11220;48.812;9.128;2023-04-24T09:52:02;19.70;77.70
22108;DHT22;11220;48.812;9.128;2023-04-24T09:54:27;18.90;77.20
22108;DHT22;11220;48.812;9.128;2023-04-24T09:56:54;19.00;77.20
22108;DHT22;11220;48.812;9.128;2023-04-24T09:59:20;19.00;77.20
22108;DHT22;11220;48.812;9.128;2023-04-24T10:01:46;19.00;77.20
22108;DHT22;11220;48.812;9.128;2023-04-24T10:04:21;19.00;77.20
22108;DHT22;11220;48.812;9.128;2023-04-24T10:06:49;19.00;77.20
22108;DHT22;11220;48.812;9.128;2023-04-24T10:09:16;19.30;77.40
22108;DHT22;11220;48.812;9.128;2023-04-24T10:11:43;19.10;77.20
22108;DHT22;11220;48.812;9.128;2023-04-24T10:14:18;19.00;77.10
22108;DHT22;11220;48.812;9.128;2023-04-24T10:16:44;19.00;77.10
22108;DHT22;11220;48.812;9.128;2023-04-24T10:19:12;19.10;77.10
22108;DHT22;11220;48.812;9.128;2023-04-24T10:21:40;19.00;76.90
22108;DHT22;11220;48.812;9.128;2023-04-24T10:24:08;19.10;76.90
22108;DHT22;11220;48.812;9.128;2023-04-24T10:26:35;19.00;76.70
22108;DHT22;11220;48.812;9.128;2023-04-24T10:29:01;19.10;76.70
22108;DHT22;11220;48.812;9.128;2023-04-24T10:31:29;19.10;76.60
22108;DHT22;11220;48.812;9.128;2023-04-24T10:33:56;19.10;76.50
22108;DHT22;11220;48.812;9.128;2023-04-24T10:36:24;19.10;76.50
22108;DHT22;11220;48.812;9.128;2023-04-24T10:38:52;19.10;76.40
22108;DHT22;11220;48.812;9.128;2023-04-24T10:41:20;19.10;76.40
22108;DHT22;11220;48.812;9.128;2023-04-24T10:44:04;19.10;76.30
22108;DHT22;11220;48.812;9.128;2023-04-24T10:46:30;19.10;76.30
22108;DHT22;11220;48.812;9.128;2023-04-24T10:48:55;19.10;76.30
22108;DHT22;11220;48.812;9.128;2023-04-24T10:51:23;19.10;76.20
22108;DHT22;11220;48.812;9.128;2023-04-24T10:53:52;19.10;76.20
22108;DHT22;11220;48.812;9.128;2023-04-24T10:56:17;19.10;76.10
22108;DHT22;11220;48.812;9.128;2023-04-24T10:58:45;19.20;76.20
22108;DHT22;11220;48.812;9.128;2023-04-24T11:01:25;19.60;76.40
22108;DHT22;11220;48.812;9.128;2023-04-24T11:03:55;19.20;76.10
22108;DHT22;11220;48.812;9.128;2023-04-24T11:06:28;20.10;76.60
22108;DHT22;11220;48.812;9.128;2023-04-24T11:09:05;19.20;76.00
22108;DHT22;11220;48.812;9.128;2023-04-24T11:11:32;19.20;76.00
22108;DHT22;11220;48.812;9.128;2023-04-24T11:16:31;19.20;76.00
22108;DHT22;11220;48.812;9.128;2023-04-24T11:19:05;19.20;76.00
22108;DHT22;11220;48.812;9.128;2023-04-24T11:29:47;19.20;75.80
22108;DHT22;11220;48.812;9.128;2023-04-24T11:35:05;19.30;75.90
22108;DHT22;11220;48.812;9.128;2023-04-24T11:40:01;19.30;76.70
22108;DHT22;11220;48.812;9.128;2023-04-24T11:42:28;19.30;75.70
22108;DHT22;11220;48.812;9.128;2023-04-24T11:44:54;20.20;76.20
22108;DHT22;11220;48.812;9.128;2023-04-24T11:47:32;19.30;75.70
22108;DHT22;11220;48.812;9.128;2023-04-24T11:49:59;19.30;75.60
22108;DHT22;11220;48.812;9.128;2023-04-24T11:52:26;20.30;76.30
22108;DHT22;11220;48.812;9.128;2023-04-24T11:54:52;19.30;75.60
22108;DHT22;11220;48.812;9.128;2023-04-24T11:57:22;19.30;75.70
22108;DHT22;11220;48.812;9.128;2023-04-24T11:59:48;19.30;75.70
22108;DHT22;11220;48.812;9.128;2023-04-24T12:02:24;19.30;75.70
22108;DHT22;11220;48.812;9.128;2023-04-24T12:04:50;19.30;75.60
22108;DHT22;11220;48.812;9.128;2023-04-24T12:07:15;19.40;75.70
22108;DHT22;11220;48.812;9.128;2023-04-24T12:09:43;19.40;75.60
22108;DHT22;11220;48.812;9.128;2023-04-24T12:12:09;19.40;75.50
22108;DHT22;11220;48.812;9.128;2023-04-24T12:14:43;20.00;75.90
22108;DHT22;11220;48.812;9.128;2023-04-24T12:17:08;20.20;76.30
22108;DHT22;11220;48.812;9.128;2023-04-24T12:19:34;20.10;76.00
22108;DHT22;11220;48.812;9.128;2023-04-24T12:22:01;20.00;76.00
22108;DHT22;11220;48.812;9.128;2023-04-24T12:24:27;19.40;75.60
22108;DHT22;11220;48.812;9.128;2023-04-24T12:26:52;20.30;76.20
22108;DHT22;11220;48.812;9.128;2023-04-24T12:29:22;19.40;75.60
22108;DHT22;11220;48.812;9.128;2023-04-24T12:31:48;20.20;76.10
22108;DHT22;11220;48.812;9.128;2023-04-24T12:34:21;19.40;75.60
22108;DHT22;11220;48.812;9.128;2023-04-24T12:36:47;19.60;75.70
22108;DHT22;11220;48.812;9.128;2023-04-24T12:39:19;20.60;76.40
22108;DHT22;11220;48.812;9.128;2023-04-24T12:42:03;19.70;76.70
22108;DHT22;11220;48.812;9.128;2023-04-24T12:44:33;19.40;75.50
22108;DHT22;11220;48.812;9.128;2023-04-24T12:47:00;19.40;75.50
22108;DHT22;11220;48.812;9.128;2023-04-24T12:49:27;19.30;75.50
22108;DHT22;11220;48.812;9.128;2023-04-24T12:51:53;19.30;75.50
22108;DHT22;11220;48.812;9.128;2023-04-24T12:54:19;19.40;75.50
22108;DHT22;11220;48.812;9.128;2023-04-24T12:56:45;20.40;76.10
22108;DHT22;11220;48.812;9.128;2023-04-24T12:59:10;19.30;75.40
22108;DHT22;11220;48.812;9.128;2023-04-24T13:01:36;19.30;76.40
22108;DHT22;11220;48.812;9.128;2023-04-24T13:04:01;19.30;75.40
22108;DHT22;11220;48.812;9.128;2023-04-24T13:06:27;19.30;75.40
22108;DHT22;11220;48.812;9.128;2023-04-24T13:08:53;19.30;75.40
22108;DHT22;11220;48.812;9.128;2023-04-24T13:11:20;19.40;75.50
22108;DHT22;11220;48.812;9.128;2023-04-24T13:13:47;19.40;75.40
22108;DHT22;11220;48.812;9.128;2023-04-24T13:16:12;19.50;75.50
22108;DHT22;11220;48.812;9.128;2023-04-24T13:18:38;19.50;75.50
22108;DHT22;11220;48.812;9.128;2023-04-24T13:21:03;19.50;75.40
22108;DHT22;11220;48.812;9.128;2023-04-24T13:23:29;19.60;75.50
22108;DHT22;11220;48.812;9.128;2023-04-24T13:25:54;19.50;75.40
22108;DHT22;11220;48.812;9.128;2023-04-24T13:28:23;20.00;75.70
22108;DHT22;11220;48.812;9.128;2023-04-24T13:30:48;19.60;75.40
22108;DHT22;11220;48.812;9.128;2023-04-24T13:33:14;19.60;75.50
22108;DHT22;11220;48.812;9.128;2023-04-24T13:35:40;19.60;75.50
22108;DHT22;11220;48.812;9.128;2023-04-24T13:38:05;20.20;75.90
22108;DHT22;11220;48.812;9.128;2023-04-24T13:40:31;19.60;75.50
22108;DHT22;11220;48.812;9.128;2023-04-24T13:42:57;21.00;76.40
22108;DHT22;11220;48.812;9.128;2023-04-24T13:45:23;19.60;75.50
22108;DHT22;11220;48.812;9.128;2023-04-24T13:47:48;19.60;75.60
22108;DHT22;11220;48.812;9.128;2023-04-24T13:50:14;19.60;75.60
22108;DHT22;11220;48.812;9.128;2023-04-24T13:52:40;20.90;76.50
22108;DHT22;11220;48.812;9.128;2023-04-24T13:55:06;19.70;75.90
22108;DHT22;11220;48.812;9.128;2023-04-24T13:57:31;19.70;76.20
22108;DHT22;11220;48.812;9.128;2023-04-24T13:59:58;19.80;76.40
22108;DHT22;11220;48.812;9.128;2023-04-24T14:02:27;19.80;76.60
22108;DHT22;11220;48.812;9.128;2023-04-24T14:04:52;19.90;76.70
22108;DHT22;11220;48.812;9.128;2023-04-24T14:07:18;20.40;77.00
22108;DHT22;11220;48.812;9.128;2023-04-24T14:09:44;20.00;76.70
22108;DHT22;11220;48.812;9.128;2023-04-24T14:12:09;20.10;76.70
22108;DHT22;11220;48.812;9.128;2023-04-24T14:14:35;20.20;76.50
22108;DHT22;11220;48.812;9.128;2023-04-24T14:17:00;20.30;76.50
22108;DHT22;11220;48.812;9.128;2023-04-24T14:19:26;20.40;76.40
22108;DHT22;11220;48.812;9.128;2023-04-24T14:21:51;20.40;76.10
22108;DHT22;11220;48.812;9.128;2023-04-24T14:24:18;20.50;75.80
22108;DHT22;11220;48.812;9.128;2023-04-24T14:26:44;20.60;75.50
22108;DHT22;11220;48.812;9.128;2023-04-24T14:29:09;20.60;75.30
22108;DHT22;11220;48.812;9.128;2023-04-24T14:31:35;22.40;76.20
22108;DHT22;11220;48.812;9.128;2023-04-24T14:34:00;20.70;74.80
22108;DHT22;11220;48.812;9.128;2023-04-24T14:36:26;20.70;74.50
22108;DHT22;11220;48.812;9.128;2023-04-24T14:38:51;20.70;74.30
22108;DHT22;11220;48.812;9.128;2023-04-24T14:41:17;20.60;74.20
22108;DHT22;11220;48.812;9.128;2023-04-24T14:43:42;20.60;74.10
22108;DHT22;11220;48.812;9.128;2023-04-24T14:46:08;20.50;74.10
22108;DHT22;11220;48.812;9.128;2023-04-24T14:48:33;20.70;74.20
22108;DHT22;11220;48.812;9.128;2023-04-24T14:50:59;20.50;74.10
22108;DHT22;11220;48.812;9.128;2023-04-24T14:53:24;20.90;74.30
22108;DHT22;11220;48.812;9.128;2023-04-24T14:55:50;20.40;74.00
22108;DHT22;11220;48.812;9.128;2023-04-24T14:58:15;20.40;74.00
22108;DHT22;11220;48.812;9.128;2023-04-24T15:00:41;20.40;74.00
22108;DHT22;11220;48.812;9.128;2023-04-24T15:03:07;20.40;74.10
22108;DHT22;11220;48.812;9.128;2023-04-24T15:05:32;20.50;74.10
22108;DHT22;11220;48.812;9.128;2023-04-24T15:07:58;20.60;74.00
22108;DHT22;11220;48.812;9.128;2023-04-24T15:10:23;20.60;73.70
22108;DHT22;11220;48.812;9.128;2023-04-24T15:12:50;20.60;73.50
22108;DHT22;11220;48.812;9.128;2023-04-24T15:15:16;20.60;73.30
22108;DHT22;11220;48.812;9.128;2023-04-24T15:17:42;20.60;73.30
22108;DHT22;11220;48.812;9.128;2023-04-24T15:20:08;20.50;73.30
22108;DHT22;11220;48.812;9.128;2023-04-24T15:22:33;20.50;74.30
22108;DHT22;11220;48.812;9.128;2023-04-24T15:24:59;20.50;73.30
22108;DHT22;11220;48.812;9.128;2023-04-24T15:27:24;20.60;73.50
22108;DHT22;11220;48.812;9.128;2023-04-24T15:29:50;20.40;73.30
22108;DHT22;11220;48.812;9.128;2023-04-24T15:32:16;20.40;73.30
22108;DHT22;11220;48.812;9.128;2023-04-24T15:34:41;20.40;73.30
22108;DHT22;11220;48.812;9.128;2023-04-24T15:37:07;20.30;73.40
22108;DHT22;11220;48.812;9.128;2023-04-24T15:39:33;20.40;73.40
22108;DHT22;11220;48.812;9.128;2023-04-24T15:41:59;20.30;73.40